Time;durP1;ratioP1;P1;durP2;ratioP2;P2;SDS_P1;SDS_P2;PMS_P1;PMS_P2;Temp;Humidity;BMP_temperature;BMP_pressure;BME280_temperature;BME280_humidity;BME280_pressure;Samples;Min_cycle;Max_cycle;Signal;HPM_P1;HPM_P2
2022/10/30 00:02:26;;;;;;;38.27;20.27;;;;;;;13.10;100.00;101303.69;7389715;19;20395;-46
2022/10/30 00:04:56;;;;;;;34.67;19.73;;;;;;;13.18;100.00;101293.59;7386024;19;20419;-50
2022/10/30 00:07:25;;;;;;;41.53;21.30;;;;;;;13.15;100.00;101290.00;7384686;19;20556;-52
2022/10/30 00:09:55;;;;;;;38.50;20.90;;;;;;;13.18;100.00;101282.38;7382668;19;20451;-49
2022/10/30 00:12:24;;;;;;;37.20;20.50;;;;;;;13.20;100.00;101281.63;7386206;19;20391;-48
2022/10/30 00:14:54;;;;;;;39.10;20.00;;;;;;;13.25;100.00;101281.78;7383736;19;20434;-48
2022/10/30 00:17:23;;;;;;;34.33;20.67;;;;;;;13.19;100.00;101273.78;7386130;19;20421;-49
2022/10/30 00:19:55;;;;;;;43.17;19.73;;;;;;;13.18;100.00;101269.44;7385349;19;20417;-52
2022/10/30 00:22:25;;;;;;;36.23;19.67;;;;;;;13.27;100.00;101267.19;7390472;19;20927;-48
2022/10/30 00:24:54;;;;;;;37.03;20.60;;;;;;;13.17;100.00;101265.94;7382819;19;20410;-49
2022/10/30 00:27:24;;;;;;;41.57;20.67;;;;;;;13.13;100.00;101253.66;7385716;19;21335;-50
2022/10/30 00:29:53;;;;;;;41.13;19.57;;;;;;;13.06;100.00;101262.94;7383766;19;20433;-52
2022/10/30 00:32:23;;;;;;;33.20;18.70;;;;;;;13.03;100.00;101262.78;7385429;19;20433;-49
2022/10/30 00:34:55;;;;;;;36.70;18.70;;;;;;;13.05;100.00;101271.53;7386337;19;20391;-48
2022/10/30 00:37:24;;;;;;;33.93;17.70;;;;;;;13.12;100.00;101261.41;7386454;19;20448;-51
2022/10/30 00:39:54;;;;;;;36.27;18.93;;;;;;;13.15;100.00;101271.88;7388209;19;20412;-47
2022/10/30 00:42:24;;;;;;;35.43;18.40;;;;;;;13.09;100.00;101262.16;7386027;19;20493;-51
2022/10/30 00:44:54;;;;;;;30.33;17.80;;;;;;;13.03;100.00;101256.75;7383289;19;20825;-47
2022/10/30 00:47:27;;;;;;;33.33;17.40;;;;;;;13.05;100.00;101255.09;7390772;19;20435;-53
2022/10/30 00:50:03;;;;;;;35.83;17.20;;;;;;;13.02;100.00;101261.03;7384815;19;20425;-48
2022/10/30 00:52:36;;;;;;;37.37;17.77;;;;;;;12.99;100.00;101257.44;7394776;19;20500;-50
2022/10/30 00:55:09;;;;;;;33.50;17.93;;;;;;;13.01;100.00;101259.25;7390405;19;20422;-48
2022/10/30 00:57:40;;;;;;;34.17;17.83;;;;;;;13.02;100.00;101261.03;7391741;19;20486;-48
2022/10/30 01:00:11;;;;;;;33.87;17.80;;;;;;;13.03;100.00;101257.59;7390118;19;20407;-48
2022/10/30 01:02:43;;;;;;;30.90;17.63;;;;;;;13.03;100.00;101265.38;7393724;19;20396;-50
2022/10/30 01:05:17;;;;;;;35.90;17.63;;;;;;;13.04;100.00;101254.22;7390268;19;20411;-52
2022/10/30 01:07:46;;;;;;;26.20;17.00;;;;;;;13.06;100.00;101256.84;7391254;19;21290;-53
2022/10/30 01:10:16;;;;;;;30.57;17.50;;;;;;;13.12;100.00;101251.91;7391153;19;20432;-50
2022/10/30 01:12:47;;;;;;;35.10;18.90;;;;;;;13.11;100.00;101260.50;7399271;19;20406;-53
2022/10/30 01:15:17;;;;;;;30.23;17.60;;;;;;;13.07;100.00;101253.44;7392182;19;20421;-48
2022/10/30 01:17:58;;;;;;;43.83;18.77;;;;;;;13.07;100.00;101249.16;7391803;19;20445;-50
2022/10/30 01:20:41;;;;;;;35.77;17.53;;;;;;;13.03;100.00;101252.44;7392163;19;20420;-49
2022/10/30 01:23:18;;;;;;;29.90;18.30;;;;;;;13.03;100.00;101242.06;7394784;19;20420;-52
2022/10/30 01:25:54;;;;;;;27.90;17.30;;;;;;;13.02;100.00;101244.63;7391849;19;20415;-47
2022/10/30 01:28:40;;;;;;;38.23;18.87;;;;;;;13.10;100.00;101238.03;7391793;19;20852;-52
2022/10/30 01:31:19;;;;;;;37.77;20.00;;;;;;;13.06;100.00;101243.91;7390492;19;20441;-48
2022/10/30 01:33:57;;;;;;;33.50;16.87;;;;;;;13.05;100.00;101247.31;7394790;19;20417;-48
2022/10/30 01:36:34;;;;;;;33.97;17.67;;;;;;;13.05;100.00;101248.22;7390295;19;20430;-48
2022/10/30 01:39:06;;;;;;;39.23;17.93;;;;;;;13.08;100.00;101258.69;7394417;19;20393;-50
2022/10/30 01:41:36;;;;;;;30.90;16.53;;;;;;;13.00;100.00;101254.91;7391760;19;20973;-51
2022/10/30 01:44:09;;;;;;;36.87;17.57;;;;;;;13.01;100.00;101254.09;7394579;19;20412;-55
2022/10/30 01:46:45;;;;;;;35.03;16.70;;;;;;;13.03;100.00;101252.44;7389213;19;20530;-48
2022/10/30 01:49:29;;;;;;;42.60;17.80;;;;;;;13.04;100.00;101259.41;7397973;19;20899;-47
2022/10/30 01:52:09;;;;;;;29.00;16.77;;;;;;;13.09;100.00;101257.00;7397884;19;20437;-51
2022/10/30 01:54:42;;;;;;;30.43;17.80;;;;;;;13.03;100.00;101246.38;7391677;19;20399;-47
2022/10/30 01:57:18;;;;;;;26.43;17.27;;;;;;;13.03;100.00;101242.06;7389578;19;20428;-47
2022/10/30 01:59:51;;;;;;;30.83;17.00;;;;;;;13.00;100.00;101246.25;7391384;19;20400;-51
2022/10/30 02:02:21;;;;;;;28.73;16.93;;;;;;;12.92;100.00;101253.72;7390510;19;20439;-50
2022/10/30 02:04:51;;;;;;;34.10;15.43;;;;;;;13.02;100.00;101250.66;7394414;19;20418;-50
2022/10/30 02:07:24;;;;;;;30.37;15.70;;;;;;;12.89;100.00;101258.78;7392890;19;20424;-49
2022/10/30 02:09:54;;;;;;;24.73;15.90;;;;;;;12.80;100.00;101265.34;7391048;19;20955;-51
2022/10/30 02:12:25;;;;;;;32.57;16.90;;;;;;;12.86;100.00;101256.94;7395819;19;20415;-50
2022/10/30 02:14:56;;;;;;;31.03;16.63;;;;;;;12.90;100.00;101265.72;7391897;19;20437;-50
2022/10/30 02:17:26;;;;;;;26.50;15.17;;;;;;;12.92;100.00;101252.00;7392785;19;20411;-48
2022/10/30 02:19:55;;;;;;;30.80;17.47;;;;;;;12.94;100.00;101260.75;7391348;19;20946;-48
2022/10/30 02:22:27;;;;;;;35.90;18.23;;;;;;;12.93;100.00;101255.50;7392569;19;20920;-49
2022/10/30 02:24:57;;;;;;;34.10;17.30;;;;;;;12.98;100.00;101261.75;7390069;19;20409;-52
2022/10/30 02:27:26;;;;;;;28.67;15.73;;;;;;;12.88;100.00;101257.00;7392475;19;20454;-53
2022/10/30 02:29:56;;;;;;;30.23;16.97;;;;;;;12.87;100.00;101260.44;7390088;19;20438;-49
2022/10/30 02:32:25;;;;;;;28.10;16.57;;;;;;;12.80;100.00;101262.78;7392193;19;20454;-52
2022/10/30 02:34:55;;;;;;;33.17;15.57;;;;;;;12.79;100.00;101271.38;7393285;19;20426;-49
2022/10/30 02:37:26;;;;;;;30.80;16.30;;;;;;;12.77;100.00;101282.47;7391665;19;20425;-48
2022/10/30 02:39:56;;;;;;;29.80;15.17;;;;;;;12.83;100.00;101285.31;7391500;19;20429;-47
2022/10/30 02:42:25;;;;;;;26.97;16.33;;;;;;;12.72;100.00;101282.25;7392956;19;20760;-51
2022/10/30 02:44:55;;;;;;;27.73;16.00;;;;;;;12.83;100.00;101275.81;7389836;19;20427;-52
2022/10/30 02:47:24;;;;;;;37.47;16.77;;;;;;;12.82;100.00;101273.19;7391336;19;20472;-51
2022/10/30 02:49:54;;;;;;;24.43;16.00;;;;;;;12.72;100.00;101271.91;7390116;19;20859;-51
2022/10/30 02:52:23;;;;;;;26.67;16.20;;;;;;;12.73;100.00;101273.69;7391598;19;20426;-52
2022/10/30 02:54:55;;;;;;;28.57;17.20;;;;;;;12.73;100.00;101273.69;7389248;19;20523;-52
2022/10/30 02:57:25;;;;;;;30.40;16.17;;;;;;;12.87;100.00;101278.56;7390142;19;20426;-50
2022/10/30 02:59:54;;;;;;;32.33;16.57;;;;;;;12.76;100.00;101273.81;7386326;19;20440;-49
2022/10/30 03:02:24;;;;;;;31.83;15.77;;;;;;;12.61;100.00;101275.78;7394388;19;20430;-53
2022/10/30 03:04:53;;;;;;;28.07;15.40;;;;;;;12.54;100.00;101278.13;7388860;19;20965;-52
2022/10/30 03:07:22;;;;;;;28.60;14.90;;;;;;;12.48;100.00;101282.13;7391372;19;20403;-48
2022/10/30 03:09:54;;;;;;;26.50;15.47;;;;;;;12.39;100.00;101274.84;7388736;19;20427;-46
2022/10/30 03:12:24;;;;;;;37.63;15.10;;;;;;;12.36;100.00;101283.38;7395020;19;20421;-53
2022/10/30 03:14:53;;;;;;;25.90;15.30;;;;;;;12.29;100.00;101286.53;7388887;19;20442;-48
2022/10/30 03:17:23;;;;;;;31.27;14.90;;;;;;;12.29;100.00;101282.25;7389838;19;20444;-48
2022/10/30 03:19:53;;;;;;;36.27;15.90;;;;;;;12.24;100.00;101294.09;7391353;19;20716;-47
2022/10/30 03:22:22;;;;;;;25.40;15.33;;;;;;;12.28;100.00;101285.66;7395275;19;20397;-52
2022/10/30 03:24:51;;;;;;;28.57;15.13;;;;;;;12.24;100.00;101288.91;7388835;19;20419;-50
2022/10/30 03:27:23;;;;;;;34.30;15.90;;;;;;;12.21;100.00;101282.72;7390042;19;20443;-46
2022/10/30 03:29:53;;;;;;;32.20;15.53;;;;;;;12.21;100.00;101277.56;7388567;19;20411;-51
2022/10/30 03:32:22;;;;;;;25.83;14.77;;;;;;;12.21;100.00;101278.41;7391178;19;20388;-52
2022/10/30 03:34:53;;;;;;;27.17;15.53;;;;;;;12.20;100.00;101268.91;7388440;19;20404;-50
2022/10/30 03:37:22;;;;;;;23.80;14.20;;;;;;;12.14;100.00;101266.03;7389446;19;20435;-51
2022/10/30 03:39:51;;;;;;;46.23;15.20;;;;;;;12.30;100.00;101262.41;7389559;19;20411;-54
2022/10/30 03:42:23;;;;;;;26.77;15.67;;;;;;;12.34;100.00;101264.31;7394973;19;20764;-50
2022/10/30 03:44:53;;;;;;;36.50;16.70;;;;;;;12.35;100.00;101260.91;7387402;19;21102;-52
2022/10/30 03:47:22;;;;;;;36.30;16.70;;;;;;;12.27;100.00;101250.22;7390686;19;20436;-50
2022/10/30 03:49:51;;;;;;;32.23;16.53;;;;;;;12.29;100.00;101251.19;7388150;19;20415;-49
2022/10/30 03:52:21;;;;;;;25.77;16.00;;;;;;;12.27;100.00;101245.06;7388767;19;20949;-50
2022/10/30 03:54:50;;;;;;;26.80;16.10;;;;;;;12.25;100.00;101254.47;7387567;19;20428;-48
2022/10/30 03:57:20;;;;;;;30.37;16.33;;;;;;;12.31;100.00;101252.97;7389281;19;20419;-50
2022/10/30 03:59:52;;;;;;;30.43;16.30;;;;;;;12.31;100.00;101255.53;7384362;19;20458;-48
2022/10/30 04:02:21;;;;;;;26.80;15.90;;;;;;;12.42;100.00;101254.31;7389869;19;20407;-51
2022/10/30 04:04:51;;;;;;;27.63;15.83;;;;;;;12.36;100.00;101256.63;7386232;19;20398;-54
2022/10/30 04:07:20;;;;;;;29.97;16.10;;;;;;;12.29;100.00;101258.06;7389740;19;20424;-49
2022/10/30 04:09:50;;;;;;;34.30;16.63;;;;;;;12.33;100.00;101256.50;7388136;19;20412;-55
2022/10/30 04:12:19;;;;;;;35.23;16.50;;;;;;;12.20;100.00;101255.97;7388026;19;20406;-48
2022/10/30 04:14:52;;;;;;;27.40;16.63;;;;;;;12.26;100.00;101258.81;7388106;19;22249;-50
2022/10/30 04:17:22;;;;;;;26.73;15.00;;;;;;;12.20;100.00;101262.84;7389102;19;20422;-50
2022/10/30 04:19:51;;;;;;;29.17;15.67;;;;;;;12.22;100.00;101263.78;7387304;19;20400;-49
2022/10/30 04:22:20;;;;;;;26.43;16.10;;;;;;;12.12;100.00;101267.69;7387945;19;20407;-50
2022/10/30 04:24:50;;;;;;;33.00;16.83;;;;;;;12.08;100.00;101264.09;7386980;19;20392;-56
2022/10/30 04:27:19;;;;;;;29.63;15.27;;;;;;;12.03;100.00;101265.53;7391666;19;20459;-48
2022/10/30 04:29:52;;;;;;;25.80;13.93;;;;;;;12.03;100.00;101257.78;7386571;19;20424;-54
2022/10/30 04:32:21;;;;;;;26.70;14.73;;;;;;;12.00;100.00;101262.84;7388132;19;20456;-49
2022/10/30 04:34:52;;;;;;;25.40;14.83;;;;;;;12.18;100.00;101257.59;7386248;19;20491;-53
2022/10/30 04:37:21;;;;;;;25.37;16.07;;;;;;;12.19;100.00;101264.53;7388556;19;20425;-51
2022/10/30 04:39:50;;;;;;;25.23;15.13;;;;;;;12.02;100.00;101267.22;7387121;19;20438;-54
2022/10/30 04:42:20;;;;;;;24.90;14.13;;;;;;;12.16;100.00;101261.84;7388189;19;20418;-50
2022/10/30 04:44:52;;;;;;;29.43;15.50;;;;;;;12.27;100.00;101260.56;7386320;19;20516;-50
2022/10/30 04:47:21;;;;;;;40.37;15.60;;;;;;;12.38;100.00;101250.72;7388436;19;20437;-52
2022/10/30 04:49:51;;;;;;;39.87;16.13;;;;;;;12.36;100.00;101251.47;7385852;19;20445;-52
2022/10/30 04:52:20;;;;;;;30.87;17.03;;;;;;;12.27;100.00;101247.63;7387448;19;20390;-49
2022/10/30 04:54:50;;;;;;;31.33;15.23;;;;;;;12.19;100.00;101246.44;7386466;19;20429;-56
2022/10/30 04:57:20;;;;;;;26.70;15.80;;;;;;;12.27;100.00;101247.63;7387513;19;20950;-50
2022/10/30 04:59:52;;;;;;;26.63;14.60;;;;;;;12.31;100.00;101250.38;7384722;19;20432;-49
2022/10/30 05:02:21;;;;;;;23.10;13.50;;;;;;;12.13;100.00;101248.75;7388975;19;21072;-50
2022/10/30 05:04:51;;;;;;;31.87;14.30;;;;;;;12.05;100.00;101260.47;7385390;19;20491;-52
2022/10/30 05:07:20;;;;;;;26.00;13.30;;;;;;;11.91;100.00;101262.41;7388250;19;20969;-52
2022/10/30 05:09:50;;;;;;;31.13;13.57;;;;;;;11.90;100.00;101261.56;7385474;19;20436;-55
2022/10/30 05:12:21;;;;;;;26.87;14.10;;;;;;;12.07;100.00;101269.19;7387255;19;20400;-48
2022/10/30 05:14:53;;;;;;;26.63;13.47;;;;;;;12.31;100.00;101263.31;7385587;19;20411;-52
2022/10/30 05:17:22;;;;;;;22.37;13.07;;;;;;;12.56;100.00;101271.28;7386851;19;20424;-52
2022/10/30 05:19:53;;;;;;;37.93;18.57;;;;;;;12.63;100.00;101266.38;7382064;19;20496;-48
2022/10/30 05:22:22;;;;;;;38.37;21.97;;;;;;;12.39;100.00;101269.69;7383537;19;20392;-53
2022/10/30 05:24:52;;;;;;;33.73;19.77;;;;;;;12.28;100.00;101275.31;7380892;19;20411;-49
2022/10/30 05:27:22;;;;;;;41.63;19.73;;;;;;;12.40;100.00;101274.03;7382492;19;20425;-52
2022/10/30 05:29:54;;;;;;;31.93;15.27;;;;;;;12.13;100.00;101277.22;7380182;19;20437;-51
2022/10/30 05:32:23;;;;;;;29.73;13.10;;;;;;;11.90;100.00;101282.25;7388932;19;20777;-49
2022/10/30 05:34:53;;;;;;;26.80;12.80;;;;;;;11.88;100.00;101287.34;7394966;19;20427;-50
2022/10/30 05:37:22;;;;;;;26.10;13.43;;;;;;;11.82;100.00;101293.91;7393447;19;20443;-51
2022/10/30 05:39:51;;;;;;;21.10;12.93;;;;;;;11.77;100.00;101290.22;7395764;19;20407;-48
2022/10/30 05:42:21;;;;;;;23.73;12.93;;;;;;;11.74;100.00;101286.69;7394675;19;20374;-49
2022/10/30 05:44:53;;;;;;;26.27;12.83;;;;;;;11.83;100.00;101288.81;7390592;19;20414;-48
2022/10/30 05:47:30;;;;;;;23.13;14.47;;;;;;;11.91;100.00;101288.28;7394537;19;20439;-47
2022/10/30 05:49:59;;;;;;;28.63;13.93;;;;;;;12.16;100.00;101282.53;7390842;19;20411;-51
2022/10/30 05:52:29;;;;;;;25.93;13.23;;;;;;;12.01;100.00;101285.28;7393158;19;20397;-51
2022/10/30 05:54:58;;;;;;;25.30;13.37;;;;;;;12.00;100.00;101284.41;7389931;19;20399;-50
2022/10/30 05:57:31;;;;;;;25.03;12.13;;;;;;;11.96;100.00;101287.69;7392588;19;20411;-48
2022/10/30 06:00:04;;;;;;;24.80;12.87;;;;;;;11.86;100.00;101301.00;7388501;19;20419;-47
2022/10/30 06:02:34;;;;;;;24.17;12.97;;;;;;;11.85;100.00;101301.81;7394160;19;20995;-47
2022/10/30 06:05:03;;;;;;;22.73;13.53;;;;;;;11.87;100.00;101301.09;7390513;19;20410;-54
2022/10/30 06:07:33;;;;;;;20.03;13.40;;;;;;;11.88;100.00;101301.94;7393004;19;20439;-48
2022/10/30 06:10:02;;;;;;;58.73;34.33;;;;;;;12.01;100.00;101299.09;7390740;19;20418;-47
2022/10/30 06:12:32;;;;;;;21.80;13.10;;;;;;;11.84;100.00;101302.66;7392061;19;20388;-53
2022/10/30 06:15:04;;;;;;;28.30;14.30;;;;;;;11.86;100.00;101301.88;7390370;19;20410;-47
2022/10/30 06:17:34;;;;;;;75.17;42.90;;;;;;;12.06;100.00;101301.03;7392894;19;20421;-54
2022/10/30 06:20:03;;;;;;;28.47;17.30;;;;;;;12.05;100.00;101307.91;7390615;19;20411;-49
2022/10/30 06:22:33;;;;;;;29.80;16.57;;;;;;;12.01;100.00;101301.69;7396160;19;20396;-47
2022/10/30 06:25:02;;;;;;;45.37;22.53;;;;;;;12.03;100.00;101306.94;7388181;19;20435;-50
2022/10/30 06:27:32;;;;;;;43.13;22.40;;;;;;;11.96;100.00;101303.19;7392665;19;20411;-47
2022/10/30 06:30:04;;;;;;;27.93;13.80;;;;;;;11.83;100.00;101306.91;7388176;19;20411;-51
2022/10/30 06:32:33;;;;;;;37.00;17.40;;;;;;;11.85;100.00;101314.75;7392075;19;20422;-49
2022/10/30 06:35:03;;;;;;;31.57;18.10;;;;;;;11.80;100.00;101316.25;7389130;19;20433;-47
2022/10/30 06:37:32;;;;;;;28.43;16.47;;;;;;;11.83;100.00;101306.91;7391865;19;20419;-49
2022/10/30 06:40:02;;;;;;;30.90;18.10;;;;;;;11.73;100.00;101310.78;7389518;19;20425;-50
2022/10/30 06:42:32;;;;;;;25.50;14.80;;;;;;;11.72;100.00;101309.03;7392198;19;20474;-52
2022/10/30 06:45:05;;;;;;;34.50;19.00;;;;;;;11.74;100.00;101304.78;7387105;19;20785;-48
2022/10/30 06:47:36;;;;;;;25.50;13.57;;;;;;;11.73;100.00;101309.88;7391477;19;20415;-49
2022/10/30 06:50:06;;;;;;;30.50;12.83;;;;;;;11.58;100.00;101316.13;7389154;19;20438;-49
2022/10/30 06:52:35;;;;;;;27.63;12.97;;;;;;;11.54;100.00;101310.75;7391698;19;20396;-49
2022/10/30 06:55:06;;;;;;;25.47;12.73;;;;;;;11.52;100.00;101304.59;7388893;19;20449;-49
2022/10/30 06:57:35;;;;;;;25.80;15.30;;;;;;;11.52;100.00;101314.94;7390272;19;20415;-47
2022/10/30 07:00:09;;;;;;;30.00;13.80;;;;;;;11.53;100.00;101321.91;7386447;19;20430;-49
2022/10/30 07:02:38;;;;;;;27.33;13.80;;;;;;;11.56;100.00;101312.59;7392413;19;20763;-50
2022/10/30 07:05:09;;;;;;;28.27;13.97;;;;;;;11.60;100.00;101311.91;7386273;19;20435;-50
2022/10/30 07:07:38;;;;;;;21.43;12.50;;;;;;;11.67;100.00;101315.66;7390261;19;20430;-47
2022/10/30 07:10:08;;;;;;;29.10;14.17;;;;;;;11.70;100.00;101310.63;7388509;19;20449;-47
2022/10/30 07:12:37;;;;;;;26.40;15.13;;;;;;;11.74;100.00;101306.47;7390941;19;20750;-51
2022/10/30 07:15:10;;;;;;;32.33;14.63;;;;;;;11.78;100.00;101302.38;7387484;19;20404;-47
2022/10/30 07:17:40;;;;;;;26.57;15.20;;;;;;;11.80;100.00;101303.31;7389555;19;20431;-50
2022/10/30 07:20:11;;;;;;;26.10;14.20;;;;;;;11.77;100.00;101306.63;7389153;19;20411;-50
2022/10/30 07:22:40;;;;;;;27.70;14.63;;;;;;;11.76;100.00;101297.13;7390624;19;20414;-55
2022/10/30 07:25:10;;;;;;;23.07;13.53;;;;;;;11.81;100.00;101297.31;7385512;19;20416;-51
2022/10/30 07:27:44;;;;;;;27.83;14.17;;;;;;;11.85;100.00;101301.81;7391831;19;20789;-48
2022/10/30 07:30:17;;;;;;;25.20;14.10;;;;;;;11.88;100.00;101308.03;7387648;19;20418;-52
2022/10/30 07:32:46;;;;;;;23.03;13.50;;;;;;;11.95;100.00;101314.34;7389836;19;20399;-50
2022/10/30 07:35:16;;;;;;;23.63;13.20;;;;;;;11.97;100.00;101307.56;7387014;19;20944;-51
2022/10/30 07:37:45;;;;;;;27.17;14.10;;;;;;;12.00;100.00;101320.59;7389930;19;20415;-51
2022/10/30 07:40:15;;;;;;;30.40;13.90;;;;;;;12.05;100.00;101320.84;7386943;19;20443;-47
2022/10/30 07:42:45;;;;;;;24.13;13.10;;;;;;;12.10;100.00;101321.06;7391176;19;20391;-51
2022/10/30 07:45:18;;;;;;;23.83;12.63;;;;;;;12.18;100.00;101332.63;7386009;19;20435;-51
2022/10/30 07:47:50;;;;;;;21.73;12.67;;;;;;;12.22;100.00;101326.78;7389331;19;20422;-51
2022/10/30 07:50:20;;;;;;;26.43;14.30;;;;;;;12.28;100.00;101329.63;7386839;19;20442;-51
2022/10/30 07:52:50;;;;;;;24.57;13.53;;;;;;;12.35;100.00;101327.31;7390151;19;20751;-49
2022/10/30 07:55:19;;;;;;;23.97;12.70;;;;;;;12.42;100.00;101332.81;7384005;19;20437;-48
2022/10/30 07:57:49;;;;;;;30.07;13.50;;;;;;;12.48;100.00;101349.41;7387791;19;20416;-56
2022/10/30 08:00:21;;;;;;;29.47;13.10;;;;;;;12.54;100.00;101358.34;7379098;19;20446;-50
2022/10/30 08:02:52;;;;;;;21.87;13.03;;;;;;;12.62;100.00;101362.97;7389820;19;20387;-50
2022/10/30 08:05:21;;;;;;;23.67;13.60;;;;;;;12.68;100.00;101363.22;7384140;19;20399;-51
2022/10/30 08:07:58;;;;;;;35.07;13.67;;;;;;;12.75;100.00;101375.63;7387364;19;20434;-48
2022/10/30 08:10:28;;;;;;;22.60;13.43;;;;;;;12.80;100.00;101379.28;7387959;19;20431;-50
2022/10/30 08:12:58;;;;;;;30.83;13.50;;;;;;;12.83;100.00;101383.72;7389063;19;20385;-48
2022/10/30 08:15:31;;;;;;;26.93;12.90;;;;;;;12.87;100.00;101387.31;7386386;19;20400;-49
2022/10/30 08:18:01;;;;;;;22.03;13.37;;;;;;;12.89;100.00;101396.03;7385998;19;20432;-53
2022/10/30 08:20:30;;;;;;;24.37;13.23;;;;;;;12.92;100.00;101396.19;7384974;19;20425;-49
2022/10/30 08:23:00;;;;;;;26.33;13.40;;;;;;;12.96;100.00;101392.88;7388950;19;20384;-53
2022/10/30 08:25:32;;;;;;;25.70;13.20;;;;;;;12.99;100.00;101389.53;7385113;19;20419;-52
2022/10/30 08:28:03;;;;;;;22.30;13.20;;;;;;;13.02;100.00;101390.53;7387678;19;20416;-51
2022/10/30 08:30:37;;;;;;;26.77;12.90;;;;;;;13.08;100.00;101395.97;7383665;19;20408;-47
2022/10/30 08:33:08;;;;;;;23.00;13.03;;;;;;;13.18;100.00;101404.16;7392378;19;20395;-50
2022/10/30 08:35:38;;;;;;;27.07;13.40;;;;;;;13.24;100.00;101418.22;7385521;19;20407;-47
2022/10/30 08:38:07;;;;;;;32.10;13.30;;;;;;;13.28;100.00;101411.47;7387408;19;20424;-48
2022/10/30 08:40:37;;;;;;;22.43;11.57;;;;;;;13.33;100.00;101417.72;7386497;19;20409;-48
2022/10/30 08:43:06;;;;;;;28.57;13.80;;;;;;;13.36;100.00;101416.97;7388130;19;20396;-53
2022/10/30 08:45:38;;;;;;;27.20;12.67;;;;;;;13.37;100.00;101424.81;7384174;19;20416;-50
2022/10/30 08:48:10;;;;;;;35.27;13.10;;;;;;;13.47;100.00;101414.84;7387062;19;20461;-49
2022/10/30 08:50:40;;;;;;;29.67;13.07;;;;;;;13.57;100.00;101416.09;7385538;19;20437;-53
2022/10/30 08:53:15;;;;;;;26.40;13.67;;;;;;;13.71;100.00;101421.81;7387602;19;20395;-50
2022/10/30 08:55:44;;;;;;;31.47;12.43;;;;;;;13.83;100.00;101424.00;7384445;19;20415;-48
2022/10/30 08:58:13;;;;;;;18.93;11.33;;;;;;;13.93;100.00;101418.34;7386019;19;20422;-52
2022/10/30 09:00:45;;;;;;;21.47;11.27;;;;;;;14.04;100.00;101421.34;7382092;19;20415;-50
2022/10/30 09:03:15;;;;;;;28.77;11.40;;;;;;;14.16;100.00;101416.63;7388448;19;20755;-55
2022/10/30 09:05:45;;;;;;;20.10;11.40;;;;;;;14.30;100.00;101424.03;7382642;19;20408;-49
2022/10/30 09:08:14;;;;;;;21.73;12.33;;;;;;;14.33;100.00;101426.78;7391986;19;20454;-47
2022/10/30 09:10:43;;;;;;;17.20;10.87;;;;;;;14.49;100.00;101430.81;7395663;19;20482;-53
2022/10/30 09:13:13;;;;;;;22.33;10.53;;;;;;;14.53;100.00;101429.22;7394374;19;20403;-51
2022/10/30 09:15:45;;;;;;;23.63;11.27;;;;;;;14.58;100.00;101427.66;7391926;19;20419;-50
2022/10/30 09:18:15;;;;;;;26.73;10.03;;;;;;;14.66;100.00;101435.75;7394969;19;20943;-51
2022/10/30 09:20:44;;;;;;;31.60;11.40;;;;;;;14.74;100.00;101441.19;7391887;19;20433;-48
2022/10/30 09:23:14;;;;;;;24.20;11.73;;;;;;;14.81;100.00;101435.41;7395148;19;20407;-50
2022/10/30 09:25:43;;;;;;;24.00;11.47;;;;;;;14.95;100.00;101426.41;7391965;19;20459;-47
2022/10/30 09:28:13;;;;;;;20.20;11.60;;;;;;;15.03;100.00;101431.84;7393101;19;20419;-48
2022/10/30 09:30:42;;;;;;;26.10;11.17;;;;;;;15.03;100.00;101423.19;7391743;19;20412;-48
2022/10/30 09:33:14;;;;;;;25.00;12.10;;;;;;;15.12;100.00;101420.88;7394808;19;20978;-48
2022/10/30 09:35:44;;;;;;;26.40;11.20;;;;;;;15.28;100.00;101424.00;7391069;19;20411;-47
2022/10/30 09:38:13;;;;;;;28.70;11.83;;;;;;;15.25;100.00;101433.47;7393467;19;20456;-49
2022/10/30 09:40:55;;;;;;;23.60;12.10;;;;;;;15.39;100.00;101433.03;7391557;19;20416;-48
2022/10/30 09:43:35;;;;;;;28.27;11.83;;;;;;;15.51;100.00;101437.75;7394748;19;20391;-53
2022/10/30 09:46:20;;;;;;;28.70;11.90;;;;;;;15.62;100.00;101433.78;7387875;19;20420;-48
2022/10/30 09:49:13;;;;;;;24.70;11.13;;;;;;;15.65;100.00;101427.78;7391855;19;20447;-50
2022/10/30 09:52:07;;;;;;;20.13;10.80;;;;;;;15.73;100.00;101431.50;7389062;19;20818;-49
2022/10/30 09:54:47;;;;;;;22.53;10.30;;;;;;;15.74;100.00;101438.47;7388634;19;20526;-47
2022/10/30 09:57:22;;;;;;;35.50;11.53;;;;;;;15.79;100.00;101436.91;7391179;19;20429;-50
2022/10/30 09:59:59;;;;;;;23.80;11.23;;;;;;;15.92;100.00;101437.31;7383833;19;20402;-48
2022/10/30 10:02:35;;;;;;;32.20;12.70;;;;;;;15.91;100.00;101438.13;7393705;19;20398;-49
2022/10/30 10:05:16;;;;;;;24.27;10.70;;;;;;;16.03;100.00;101446.31;7389704;19;21117;-51
2022/10/30 10:07:48;;;;;;;25.63;10.73;;;;;;;16.16;100.00;101436.28;7393758;19;20463;-51
2022/10/30 10:10:22;;;;;;;25.23;11.53;;;;;;;16.23;100.00;101433.03;7392131;19;20974;-50
2022/10/30 10:12:53;;;;;;;20.37;11.37;;;;;;;16.25;100.00;101444.34;7391780;19;20416;-50
2022/10/30 10:15:36;;;;;;;28.13;11.50;;;;;;;16.29;100.00;101441.00;7389626;19;20418;-47
2022/10/30 10:18:12;;;;;;;24.47;10.80;;;;;;;16.36;100.00;101429.03;7390272;19;20465;-50
2022/10/30 10:20:46;;;;;;;22.67;10.53;;;;;;;16.39;100.00;101433.44;7390471;19;20447;-52
2022/10/30 10:23:19;;;;;;;23.20;12.07;;;;;;;16.52;100.00;101434.69;7395330;19;20759;-51
2022/10/30 10:25:54;;;;;;;32.23;14.93;;;;;;;16.49;100.00;101427.66;7391032;19;20466;-50
2022/10/30 10:28:44;;;;;;;26.90;12.80;;;;;;;16.77;100.00;101417.13;7391194;19;20511;-47
2022/10/30 10:31:23;;;;;;;25.37;12.17;;;;;;;16.78;100.00;101419.78;7389702;19;20419;-48
2022/10/30 10:34:05;;;;;;;27.17;11.73;;;;;;;16.90;100.00;101413.09;7391273;19;20763;-50
2022/10/30 10:36:43;;;;;;;33.40;14.20;;;;;;;16.91;100.00;101414.91;7391414;19;20478;-49
2022/10/30 10:39:25;;;;;;;19.37;11.90;;;;;;;17.01;100.00;101420.38;7396134;19;20405;-51
2022/10/30 10:42:03;;;;;;;40.47;18.03;;;;;;;16.99;100.00;101418.56;7391343;19;20435;-50
2022/10/30 10:44:43;;;;;;;26.47;11.57;;;;;;;17.03;100.00;101423.06;7389163;19;20394;-49
2022/10/30 10:47:31;;;;;;;32.03;13.60;;;;;;;17.13;100.00;101419.81;7391347;19;20425;-48
2022/10/30 10:50:15;;;;;;;28.93;13.10;;;;;;;17.19;100.00;101418.22;7388724;19;20955;-54
2022/10/30 10:52:49;;;;;;;34.00;15.10;;;;;;;17.24;100.00;101424.44;7392505;19;20386;-49
2022/10/30 10:55:23;;;;;;;25.57;12.20;;;;;;;17.28;100.00;101423.69;7388922;19;20776;-49
2022/10/30 10:57:54;;;;;;;32.60;14.30;;;;;;;17.33;100.00;101415.97;7390169;19;20777;-47
2022/10/30 11:00:27;;;;;;;29.80;12.40;;;;;;;17.45;100.00;101418.88;7380193;19;20428;-53
2022/10/30 11:03:01;;;;;;;24.83;10.30;;;;;;;17.49;100.00;101415.47;7394164;19;20414;-49
2022/10/30 11:05:35;;;;;;;35.17;16.23;;;;;;;17.50;100.00;101411.16;7386352;19;21087;-51
2022/10/30 11:08:13;;;;;;;52.63;28.50;;;;;;;17.52;100.00;101414.66;7391779;19;20433;-47
2022/10/30 11:10:42;;;;;;;34.93;17.67;;;;;;;17.60;100.00;101414.84;7390292;19;21073;-50
2022/10/30 11:13:13;;;;;;;26.80;12.90;;;;;;;17.68;100.00;101419.41;7392032;19;20960;-47
2022/10/30 11:15:59;;;;;;;23.23;11.83;;;;;;;17.78;100.00;101414.38;7390040;19;20429;-51
2022/10/30 11:18:29;;;;;;;27.93;13.53;;;;;;;17.87;100.00;101413.69;7392707;19;20444;-49
2022/10/30 11:21:02;;;;;;;21.47;10.97;;;;;;;17.97;100.00;101409.56;7392936;19;20463;-51
2022/10/30 11:23:37;;;;;;;28.33;12.00;;;;;;;17.93;100.00;101417.34;7394433;19;20390;-51